Time;durP1;ratioP1;P1;durP2;ratioP2;P2;SDS_P1;SDS_P2;PMS_P1;PMS_P2;Temp;Humidity;BMP_temperature;BMP_pressure;BME280_temperature;BME280_humidity;BME280_pressure;Samples;Min_cycle;Max_cycle;Signal;HPM_P1;HPM_P2
2023/04/10 00:00:26;;;;;;;;;;;;;;;4.33;62.03;96522.25;5054244;28;20276;-66
2023/04/10 00:02:53;;;;;;;;;;;;;;;4.28;61.83;96521.47;5053589;28;19957;-64
2023/04/10 00:05:22;;;;;;;;;;;;;;;4.16;62.47;96531.06;5054113;28;19920;-65
2023/04/10 00:07:52;;;;;;;;;;;;;;;4.06;62.33;96518.28;5054019;28;20283;-66
2023/04/10 00:10:19;;;;;;;;;;;;;;;4.08;62.48;96521.69;5053925;28;19920;-66
2023/04/10 00:12:46;;;;;;;;;;;;;;;4.04;62.51;96513.97;5053623;28;19925;-65
2023/04/10 00:15:14;;;;;;;;;;;;;;;4.03;62.49;96509.66;5054055;28;19924;-64
2023/04/10 00:17:41;;;;;;;;;;;;;;;4.02;62.49;96510.56;5053975;28;19975;-66
2023/04/10 00:20:09;;;;;;;;;;;;;;;3.92;62.68;96507.19;5053924;28;19924;-65
2023/04/10 00:22:36;;;;;;;;;;;;;;;3.77;63.06;96507.41;5054085;28;19920;-64
2023/04/10 00:25:03;;;;;;;;;;;;;;;3.66;63.31;96503.22;5053747;28;20007;-66
2023/04/10 00:27:30;;;;;;;;;;;;;;;3.64;63.76;96499.78;5053755;28;19925;-64
2023/04/10 00:29:56;;;;;;;;;;;;;;;3.54;63.69;96499.03;5053768;28;20003;-66
2023/04/10 00:32:25;;;;;;;;;;;;;;;3.54;63.84;96490.41;5053726;28;20003;-67
2023/04/10 00:34:52;;;;;;;;;;;;;;;3.48;64.19;96493.91;5053728;28;20018;-67
2023/04/10 00:37:19;;;;;;;;;;;;;;;3.36;64.20;96491.44;5053666;28;20362;-63
2023/04/10 00:39:46;;;;;;;;;;;;;;;3.28;64.35;96494.09;5053549;28;19925;-67
2023/04/10 00:42:13;;;;;;;;;;;;;;;3.29;64.47;96482.91;5053626;28;19924;-66
2023/04/10 00:44:40;;;;;;;;;;;;;;;3.19;64.75;96481.28;5053519;28;19921;-66
2023/04/10 00:47:07;;;;;;;;;;;;;;;3.06;64.91;96488.28;5053475;28;19928;-64
2023/04/10 00:49:36;;;;;;;;;;;;;;;2.96;65.15;96483.19;5053451;28;20329;-67
2023/04/10 00:52:03;;;;;;;;;;;;;;;2.96;65.40;96483.19;5053461;28;19924;-66
2023/04/10 00:54:31;;;;;;;;;;;;;;;2.87;65.67;96485.84;5053399;28;20291;-67
2023/04/10 00:56:59;;;;;;;;;;;;;;;2.82;66.20;96485.03;5053452;28;19924;-63
2023/04/10 00:59:26;;;;;;;;;;;;;;;2.69;66.51;96476.53;5053362;28;19927;-64
2023/04/10 01:01:53;;;;;;;;;;;;;;;2.69;67.14;96485.13;5053297;28;20298;-65
2023/04/10 01:04:20;;;;;;;;;;;;;;;2.74;67.01;96475.59;5053291;28;19935;-67
2023/04/10 01:06:55;;;;;;;;;;;;;;;2.73;66.52;96476.50;5053281;28;19956;-66
2023/04/10 01:09:28;;;;;;;;;;;;;;;2.56;67.04;96476.59;5053342;28;19990;-65
2023/04/10 01:12:01;;;;;;;;;;;;;;;2.52;67.43;96470.63;5052924;28;20382;-65
2023/04/10 01:14:31;;;;;;;;;;;;;;;2.52;67.89;96462.88;5054849;28;20366;-67
2023/04/10 01:17:01;;;;;;;;;;;;;;;2.45;67.83;96468.09;5057339;28;19921;-65
2023/04/10 01:19:39;;;;;;;;;;;;;;;2.36;68.05;96461.25;5057326;28;19975;-65
2023/04/10 01:22:10;;;;;;;;;;;;;;;2.29;68.72;96462.16;5057289;28;20345;-65
2023/04/10 01:24:49;;;;;;;;;;;;;;;2.19;68.77;96459.63;5057138;28;19933;-66
2023/04/10 01:27:23;;;;;;;;;;;;;;;2.22;69.13;96464.78;5057236;28;19921;-66
2023/04/10 01:29:56;;;;;;;;;;;;;;;2.24;69.20;96464.78;5057182;28;19920;-64
2023/04/10 01:32:24;;;;;;;;;;;;;;;2.20;69.16;96458.75;5057043;28;19927;-67
2023/04/10 01:34:53;;;;;;;;;;;;;;;2.21;69.26;96464.78;5056976;28;20013;-66
2023/04/10 01:37:21;;;;;;;;;;;;;;;2.06;69.31;96461.44;5056948;28;19920;-66
2023/04/10 01:39:50;;;;;;;;;;;;;;;1.91;70.26;96458.91;5056916;28;19924;-68
2023/04/10 01:42:18;;;;;;;;;;;;;;;1.88;71.17;96467.53;5056969;28;19930;-67
2023/04/10 01:44:46;;;;;;;;;;;;;;;1.82;71.25;96459.81;5056803;28;19924;-66
2023/04/10 01:47:17;;;;;;;;;;;;;;;1.82;71.52;96457.25;5056809;28;20450;-68
2023/04/10 01:49:45;;;;;;;;;;;;;;;1.88;71.50;96458.09;5056715;28;19927;-65
2023/04/10 01:52:13;;;;;;;;;;;;;;;1.88;71.63;96462.38;5056608;28;20327;-68
2023/04/10 01:54:40;;;;;;;;;;;;;;;1.95;71.84;96464.06;5056674;28;19982;-66
2023/04/10 01:57:07;;;;;;;;;;;;;;;1.96;71.75;96460.59;5056650;28;19925;-65
2023/04/10 01:59:34;;;;;;;;;;;;;;;2.02;71.26;96462.31;5056558;28;19921;-67
2023/04/10 02:02:03;;;;;;;;;;;;;;;2.07;70.96;96460.56;5056429;28;20306;-66
2023/04/10 02:04:31;;;;;;;;;;;;;;;2.14;71.18;96469.97;5056465;28;19920;-65
2023/04/10 02:07:05;;;;;;;;;;;;;;;2.18;71.37;96462.22;5056528;28;20015;-67
2023/04/10 02:09:37;;;;;;;;;;;;;;;2.21;70.87;96468.25;5056410;28;19921;-67
2023/04/10 02:12:06;;;;;;;;;;;;;;;2.18;70.92;96463.09;5056057;28;20484;-67
2023/04/10 02:14:34;;;;;;;;;;;;;;;2.23;71.39;96463.91;5056283;28;20418;-66
2023/04/10 02:17:01;;;;;;;;;;;;;;;2.15;71.45;96455.38;5056161;28;19921;-66
2023/04/10 02:19:29;;;;;;;;;;;;;;;2.14;71.56;96459.66;5056212;28;19975;-67
2023/04/10 02:21:58;;;;;;;;;;;;;;;2.17;71.37;96456.22;5056110;28;19920;-67
2023/04/10 02:24:26;;;;;;;;;;;;;;;2.12;71.60;96455.38;5055794;28;19920;-67
2023/04/10 02:26:53;;;;;;;;;;;;;;;2.10;71.55;96450.22;5055928;28;20027;-65
2023/04/10 02:29:20;;;;;;;;;;;;;;;2.14;71.29;96453.66;5056137;28;19925;-67
2023/04/10 02:31:46;;;;;;;;;;;;;;;2.10;71.31;96447.66;5055881;28;19974;-67
2023/04/10 02:34:14;;;;;;;;;;;;;;;2.02;71.49;96450.25;5055943;28;19921;-67
2023/04/10 02:36:41;;;;;;;;;;;;;;;2.07;71.91;96439.91;5055869;28;19921;-67
2023/04/10 02:39:09;;;;;;;;;;;;;;;2.06;71.54;96442.50;5055839;28;19979;-68
2023/04/10 02:41:36;;;;;;;;;;;;;;;2.04;71.80;96445.09;5055720;28;20007;-65
2023/04/10 02:44:02;;;;;;;;;;;;;;;2.01;71.53;96443.41;5055683;28;19972;-65
2023/04/10 02:46:30;;;;;;;;;;;;;;;2.04;71.85;96439.94;5055547;28;20594;-65
2023/04/10 02:48:57;;;;;;;;;;;;;;;2.06;71.65;96440.78;5055638;28;20019;-67
2023/04/10 02:51:23;;;;;;;;;;;;;;;1.95;71.91;96439.97;5055619;28;20448;-65
2023/04/10 02:53:51;;;;;;;;;;;;;;;1.91;72.30;96436.56;5055610;28;19920;-65
2023/04/10 02:56:20;;;;;;;;;;;;;;;1.97;72.34;96431.38;5055549;28;19974;-66
2023/04/10 02:58:46;;;;;;;;;;;;;;;1.98;72.01;96435.66;5055433;28;19993;-65
2023/04/10 03:01:13;;;;;;;;;;;;;;;1.99;71.96;96429.63;5055386;28;19927;-67
2023/04/10 03:03:40;;;;;;;;;;;;;;;1.91;71.94;96435.69;5055361;28;20324;-65
2023/04/10 03:06:08;;;;;;;;;;;;;;;1.88;71.99;96437.44;5055298;28;19921;-65
2023/04/10 03:08:35;;;;;;;;;;;;;;;1.82;72.24;96434.91;5055338;28;19920;-66
2023/04/10 03:11:02;;;;;;;;;;;;;;;1.72;72.37;96433.22;5055190;28;19928;-66
2023/04/10 03:13:31;;;;;;;;;;;;;;;1.71;72.74;96432.34;5054916;28;20362;-67
2023/04/10 03:15:57;;;;;;;;;;;;;;;1.70;72.84;96438.41;5055171;28;20007;-64
2023/04/10 03:18:24;;;;;;;;;;;;;;;1.74;72.61;96436.63;5055153;28;19944;-66
2023/04/10 03:20:51;;;;;;;;;;;;;;;1.77;72.58;96437.50;5055030;28;19921;-66
2023/04/10 03:23:18;;;;;;;;;;;;;;;1.80;72.59;96434.03;5054894;28;19948;-66
2023/04/10 03:25:45;;;;;;;;;;;;;;;1.82;72.31;96441.75;5054812;28;19975;-66
2023/04/10 03:28:12;;;;;;;;;;;;;;;1.74;72.45;96434.94;5054812;28;19963;-66
2023/04/10 03:30:40;;;;;;;;;;;;;;;1.75;72.60;96435.78;5055029;28;19921;-65
2023/04/10 03:33:07;;;;;;;;;;;;;;;1.73;72.50;96438.38;5054883;28;20271;-66
2023/04/10 03:35:34;;;;;;;;;;;;;;;1.69;72.53;96439.28;5054699;28;19921;-67
2023/04/10 03:38:01;;;;;;;;;;;;;;;1.68;72.58;96437.53;5053728;28;19975;-65
2023/04/10 03:40:28;;;;;;;;;;;;;;;1.64;73.08;96434.13;5054764;28;19921;-66
2023/04/10 03:42:55;;;;;;;;;;;;;;;1.62;73.06;96437.56;5054564;28;19924;-67
2023/04/10 03:45:21;;;;;;;;;;;;;;;1.63;72.71;96436.72;5054454;28;19925;-64
2023/04/10 03:47:50;;;;;;;;;;;;;;;1.67;72.89;96433.25;5054577;28;20370;-66
2023/04/10 03:50:17;;;;;;;;;;;;;;;1.68;72.73;96434.13;5054483;28;19967;-65
2023/04/10 03:52:43;;;;;;;;;;;;;;;1.64;72.99;96430.69;5054434;28;20058;-67
2023/04/10 03:55:10;;;;;;;;;;;;;;;1.56;72.99;96438.44;5054425;28;19927;-68
2023/04/10 03:57:37;;;;;;;;;;;;;;;1.56;73.27;96437.59;5054364;28;20290;-65
2023/04/10 04:00:05;;;;;;;;;;;;;;;1.56;73.19;96438.44;5054338;28;19920;-65
2023/04/10 04:02:32;;;;;;;;;;;;;;;1.56;73.40;96445.34;5054358;28;19920;-67
2023/04/10 04:05:01;;;;;;;;;;;;;;;1.55;73.45;96439.31;5054205;28;19927;-65
2023/04/10 04:07:28;;;;;;;;;;;;;;;1.47;73.72;96439.34;5053893;28;19988;-65
2023/04/10 04:09:55;;;;;;;;;;;;;;;1.43;74.24;96440.22;5054081;28;19925;-66
2023/04/10 04:12:22;;;;;;;;;;;;;;;1.45;74.13;96440.22;5053808;28;20007;-64
2023/04/10 04:14:49;;;;;;;;;;;;;;;1.42;74.86;96438.50;5054086;28;20378;-66
2023/04/10 04:17:16;;;;;;;;;;;;;;;1.41;74.80;96433.34;5054014;28;20007;-66
2023/04/10 04:19:43;;;;;;;;;;;;;;;1.48;75.17;96443.63;5053958;28;20302;-67
2023/04/10 04:22:11;;;;;;;;;;;;;;;1.50;75.00;96441.03;5053843;28;20366;-66
2023/04/10 04:24:38;;;;;;;;;;;;;;;1.55;74.74;96435.84;5053904;28;19972;-67
2023/04/10 04:27:05;;;;;;;;;;;;;;;1.65;74.65;96445.28;5053797;28;19976;-67
2023/04/10 04:29:32;;;;;;;;;;;;;;;1.67;74.55;96447.84;5053749;28;19928;-66
2023/04/10 04:31:59;;;;;;;;;;;;;;;1.72;74.52;96444.38;5053752;28;20019;-66
2023/04/10 04:34:26;;;;;;;;;;;;;;;1.82;74.75;96460.69;5053655;28;19967;-66
2023/04/10 04:36:54;;;;;;;;;;;;;;;1.92;74.51;96455.50;5053670;28;19943;-64
2023/04/10 04:39:23;;;;;;;;;;;;;;;2.04;74.26;96452.84;5053651;28;19960;-66
2023/04/10 04:41:52;;;;;;;;;;;;;;;2.17;74.38;96447.63;5053544;28;19975;-67
2023/04/10 04:44:19;;;;;;;;;;;;;;;2.49;74.22;96452.56;5053485;28;19925;-65
2023/04/10 04:46:46;;;;;;;;;;;;;;;2.79;73.30;96452.31;5053436;28;19964;-64
2023/04/10 04:49:13;;;;;;;;;;;;;;;3.03;71.41;96448.66;5053295;28;19921;-67
2023/04/10 04:51:41;;;;;;;;;;;;;;;3.15;71.25;96454.59;5053398;28;19967;-65
2023/04/10 04:54:08;;;;;;;;;;;;;;;3.36;70.84;96445.75;5053483;28;19927;-66
2023/04/10 04:56:36;;;;;;;;;;;;;;;3.62;70.53;96449.78;5053431;28;20364;-65
2023/04/10 04:59:04;;;;;;;;;;;;;;;3.91;69.68;96451.16;5053315;28;19921;-64
2023/04/10 05:01:31;;;;;;;;;;;;;;;4.29;68.83;96454.09;5053318;28;20371;-64
2023/04/10 05:03:59;;;;;;;;;;;;;;;4.76;68.22;96450.78;5053430;28;20015;-65
2023/04/10 05:06:25;;;;;;;;;;;;;;;5.63;66.02;96455.34;5053291;28;20436;-64
2023/04/10 05:08:52;;;;;;;;;;;;;;;6.65;62.99;96464.47;5053269;28;20405;-64
2023/04/10 05:11:19;;;;;;;;;;;;;;;7.62;60.30;96465.50;5053256;28;20296;-64
2023/04/10 05:13:47;;;;;;;;;;;;;;;8.61;57.65;96463.53;5053116;28;19920;-64
2023/04/10 05:16:14;;;;;;;;;;;;;;;9.55;55.51;96463.09;5053183;28;19921;-63
2023/04/10 05:18:41;;;;;;;;;;;;;;;10.39;53.04;96472.25;5053281;28;19935;-64
2023/04/10 05:21:08;;;;;;;;;;;;;;;11.16;47.29;96467.50;5053330;28;19921;-64
2023/04/10 05:23:35;;;;;;;;;;;;;;;11.87;45.09;96471.50;5053264;28;19920;-64
2023/04/10 05:26:02;;;;;;;;;;;;;;;12.45;44.17;96475.03;5053066;28;20062;-65
2023/04/10 05:28:29;;;;;;;;;;;;;;;12.76;43.22;96472.72;5053161;28;19976;-64
2023/04/10 05:30:58;;;;;;;;;;;;;;;13.08;41.92;96472.97;5053032;28;19983;-64
2023/04/10 05:33:25;;;;;;;;;;;;;;;12.95;43.13;96477.09;5053032;28;19920;-64
2023/04/10 05:35:53;;;;;;;;;;;;;;;12.77;41.29;96474.47;5053001;28;19920;-64
2023/04/10 05:38:20;;;;;;;;;;;;;;;12.63;41.51;96477.72;5052897;28;20294;-64
2023/04/10 05:40:48;;;;;;;;;;;;;;;12.82;40.60;96476.88;5052955;28;19927;-64
2023/04/10 05:43:15;;;;;;;;;;;;;;;12.75;40.84;96484.16;5053358;28;19951;-64
2023/04/10 05:45:46;;;;;;;;;;;;;;;12.31;41.38;96482.72;5053070;28;19983;-64
2023/04/10 05:48:14;;;;;;;;;;;;;;;12.21;43.50;96482.25;5052974;28;19950;-64
2023/04/10 05:50:41;;;;;;;;;;;;;;;12.40;42.31;96481.44;5053005;28;19921;-64
2023/04/10 05:53:11;;;;;;;;;;;;;;;12.62;41.52;96481.28;5052911;28;20017;-64
2023/04/10 05:55:38;;;;;;;;;;;;;;;12.83;41.54;96481.19;5052870;28;20042;-64
2023/04/10 05:58:05;;;;;;;;;;;;;;;12.97;41.87;96475.25;5052794;28;19921;-64
2023/04/10 06:00:36;;;;;;;;;;;;;;;12.78;41.41;96481.41;5054438;28;19927;-64
2023/04/10 06:03:03;;;;;;;;;;;;;;;13.06;40.92;96474.78;5056422;28;19920;-62
2023/04/10 06:05:32;;;;;;;;;;;;;;;13.21;40.71;96474.97;5056438;28;19928;-63
2023/04/10 06:07:59;;;;;;;;;;;;;;;13.19;40.48;96479.44;5056284;28;20370;-64
2023/04/10 06:10:29;;;;;;;;;;;;;;;12.55;41.65;96474.63;5056341;28;19928;-64
2023/04/10 06:12:56;;;;;;;;;;;;;;;12.17;43.21;96464.97;5056030;28;19921;-64
2023/04/10 06:15:22;;;;;;;;;;;;;;;12.44;42.24;96464.63;5056220;28;19921;-65
2023/04/10 06:17:49;;;;;;;;;;;;;;;12.18;44.41;96466.66;5056191;28;20024;-64
2023/04/10 06:20:16;;;;;;;;;;;;;;;12.51;43.13;96469.53;5056137;28;19921;-64
2023/04/10 06:22:44;;;;;;;;;;;;;;;12.64;43.19;96467.16;5056136;28;20342;-64
2023/04/10 06:25:11;;;;;;;;;;;;;;;12.74;42.70;96461.47;5056082;28;19924;-64
2023/04/10 06:27:38;;;;;;;;;;;;;;;13.00;42.98;96467.22;5055907;28;20583;-64
2023/04/10 06:30:06;;;;;;;;;;;;;;;13.19;41.72;96461.06;5055949;28;19974;-64
2023/04/10 06:32:33;;;;;;;;;;;;;;;12.91;41.86;96465.06;5055836;28;20099;-64
2023/04/10 06:35:00;;;;;;;;;;;;;;;12.77;40.99;96463.94;5056025;28;19931;-64
2023/04/10 06:37:28;;;;;;;;;;;;;;;12.43;42.04;96478.66;5055817;28;20397;-65
2023/04/10 06:40:02;;;;;;;;;;;;;;;12.19;43.10;96468.38;5055714;28;19921;-65
2023/04/10 06:42:29;;;;;;;;;;;;;;;12.25;43.91;96468.09;5055731;28;19995;-64
2023/04/10 06:44:56;;;;;;;;;;;;;;;12.73;42.43;96476.38;5055750;28;20359;-65
2023/04/10 06:47:24;;;;;;;;;;;;;;;12.77;41.82;96485.78;5055651;28;20337;-64
2023/04/10 06:49:54;;;;;;;;;;;;;;;12.49;42.36;96481.84;5055543;28;20359;-65
2023/04/10 06:52:21;;;;;;;;;;;;;;;12.82;43.63;96480.31;5055708;28;20339;-65
2023/04/10 06:54:48;;;;;;;;;;;;;;;12.95;42.24;96472.72;5055750;28;20003;-65
2023/04/10 06:57:17;;;;;;;;;;;;;;;13.43;42.03;96480.00;5055501;28;19964;-65
2023/04/10 06:59:47;;;;;;;;;;;;;;;13.67;40.16;96481.50;5055392;28;19921;-64
2023/04/10 07:02:13;;;;;;;;;;;;;;;13.79;40.54;96477.38;5055293;28;19920;-65
2023/04/10 07:04:40;;;;;;;;;;;;;;;13.67;40.76;96474.47;5055273;28;20007;-65
2023/04/10 07:07:08;;;;;;;;;;;;;;;13.79;40.49;96477.38;5055143;28;20329;-63
2023/04/10 07:09:35;;;;;;;;;;;;;;;13.98;41.06;96478.13;5055133;28;19921;-65
2023/04/10 07:12:05;;;;;;;;;;;;;;;13.98;39.30;96482.50;5054907;28;19935;-65
2023/04/10 07:14:35;;;;;;;;;;;;;;;13.68;38.44;96491.94;5055068;28;19921;-65
2023/04/10 07:17:02;;;;;;;;;;;;;;;12.95;40.02;96491.09;5055278;28;19921;-65
2023/04/10 07:19:32;;;;;;;;;;;;;;;12.77;40.63;96490.19;5054976;28;19925;-65
2023/04/10 07:21:59;;;;;;;;;;;;;;;12.57;40.93;96480.63;5054906;28;19921;-65
2023/04/10 07:24:26;;;;;;;;;;;;;;;12.75;41.59;96492.91;5054954;28;20023;-65
2023/04/10 07:26:53;;;;;;;;;;;;;;;13.01;41.12;96495.19;5054903;28;20350;-66
2023/04/10 07:29:20;;;;;;;;;;;;;;;12.73;41.55;96486.00;5054901;28;19921;-65
2023/04/10 07:31:49;;;;;;;;;;;;;;;12.58;42.40;96492.84;5054782;28;19921;-66
2023/04/10 07:34:16;;;;;;;;;;;;;;;12.36;42.36;96493.81;5054725;28;19968;-65
2023/04/10 07:36:43;;;;;;;;;;;;;;;11.98;42.85;96490.22;5054695;28;19928;-65
2023/04/10 07:39:10;;;;;;;;;;;;;;;11.94;43.30;96483.41;5054619;28;19983;-65
2023/04/10 07:41:37;;;;;;;;;;;;;;;11.73;43.32;96493.94;5054618;28;19987;-65
2023/04/10 07:44:04;;;;;;;;;;;;;;;11.40;43.51;96489.22;5054529;28;19927;-65
2023/04/10 07:46:31;;;;;;;;;;;;;;;11.34;44.01;96486.84;5054428;28;19921;-65
2023/04/10 07:48:59;;;;;;;;;;;;;;;11.37;44.03;96489.34;5054542;28;20361;-65
2023/04/10 07:51:27;;;;;;;;;;;;;;;11.49;44.62;96483.59;5054514;28;19971;-65
2023/04/10 07:53:54;;;;;;;;;;;;;;;11.40;43.82;96483.97;5054382;28;19925;-66
2023/04/10 07:56:21;;;;;;;;;;;;;;;11.38;45.46;96496.28;5054184;28;19924;-65
2023/04/10 07:58:52;;;;;;;;;;;;;;;11.38;44.87;96481.41;5054172;28;19939;-65
2023/04/10 08:01:19;;;;;;;;;;;;;;;11.32;44.35;96486.91;5054302;28;19925;-66
2023/04/10 08:03:46;;;;;;;;;;;;;;;11.20;44.27;96493.50;5054104;28;19921;-65
2023/04/10 08:06:16;;;;;;;;;;;;;;;11.08;44.58;96480.94;5054067;28;20008;-65
2023/04/10 08:08:44;;;;;;;;;;;;;;;11.15;45.20;96481.53;5054036;28;19972;-65
2023/04/10 08:11:23;;;;;;;;;;;;;;;11.21;44.63;96478.66;5054148;28;20294;-65
2023/04/10 08:13:50;;;;;;;;;;;;;;;11.17;44.64;96482.31;5053808;28;19936;-66
2023/04/10 08:16:19;;;;;;;;;;;;;;;11.14;45.50;96478.06;5052875;28;20290;-65
2023/04/10 08:18:47;;;;;;;;;;;;;;;11.17;44.83;96485.78;5053891;28;20390;-65
2023/04/10 08:21:15;;;;;;;;;;;;;;;11.28;44.96;96487.94;5053841;28;20289;-66
2023/04/10 08:23:42;;;;;;;;;;;;;;;11.25;44.01;96483.69;5053413;28;19967;-66
2023/04/10 08:26:08;;;;;;;;;;;;;;;11.30;44.07;96491.38;5053875;28;19921;-65
2023/04/10 08:28:36;;;;;;;;;;;;;;;11.21;44.21;96476.03;5053858;28;19920;-66
2023/04/10 08:31:03;;;;;;;;;;;;;;;11.30;44.79;96474.78;5053724;28;19924;-66
2023/04/10 08:33:30;;;;;;;;;;;;;;;11.40;44.38;96476.13;5053832;28;19946;-66
2023/04/10 08:35:57;;;;;;;;;;;;;;;11.40;43.96;96460.41;5053774;28;20010;-65
2023/04/10 08:38:26;;;;;;;;;;;;;;;11.40;44.46;96470.00;5053602;28;19935;-66
2023/04/10 08:40:53;;;;;;;;;;;;;;;11.35;44.47;96478.09;5053581;28;19932;-65
2023/04/10 08:43:21;;;;;;;;;;;;;;;11.17;44.84;96467.44;5053526;28;19920;-66
2023/04/10 08:45:47;;;;;;;;;;;;;;;11.32;45.64;96472.97;5053600;28;20366;-65
2023/04/10 08:48:16;;;;;;;;;;;;;;;11.37;43.48;96461.38;5053304;28;19967;-66
2023/04/10 08:50:45;;;;;;;;;;;;;;;11.46;44.70;96459.28;5053417;28;19921;-65
2023/04/10 08:53:13;;;;;;;;;;;;;;;11.48;43.61;96450.47;5053431;28;20003;-66
2023/04/10 08:55:41;;;;;;;;;;;;;;;11.50;44.17;96455.63;5053480;28;19921;-66
2023/04/10 08:58:09;;;;;;;;;;;;;;;11.56;44.25;96446.66;5053367;28;19975;-65
2023/04/10 09:00:37;;;;;;;;;;;;;;;11.52;44.05;96453.78;5053437;28;19963;-65
2023/04/10 09:03:07;;;;;;;;;;;;;;;11.45;43.95;96452.34;5053224;28;19927;-65
2023/04/10 09:05:35;;;;;;;;;;;;;;;11.44;44.47;96456.72;5053319;28;20352;-66
2023/04/10 09:08:02;;;;;;;;;;;;;;;11.50;44.42;96448.59;5053301;28;19928;-65
2023/04/10 09:10:29;;;;;;;;;;;;;;;11.49;44.49;96451.28;5053295;28;19924;-66
2023/04/10 09:12:58;;;;;;;;;;;;;;;11.57;44.92;96440.50;5053055;28;19925;-66
2023/04/10 09:15:25;;;;;;;;;;;;;;;11.58;46.79;96440.41;5053119;28;19920;-66
2023/04/10 09:17:56;;;;;;;;;;;;;;;11.38;45.01;96451.78;5053187;28;19931;-66
2023/04/10 09:20:23;;;;;;;;;;;;;;;11.30;45.03;96443.38;5053037;28;19927;-66
2023/04/10 09:22:51;;;;;;;;;;;;;;;11.19;45.66;96449.06;5053032;28;19920;-66
2023/04/10 09:25:31;;;;;;;;;;;;;;;11.21;45.39;96435.00;5053062;28;20323;-66
2023/04/10 09:28:03;;;;;;;;;;;;;;;11.18;46.03;96444.75;5052938;28;19924;-66
2023/04/10 09:30:34;;;;;;;;;;;;;;;11.29;47.27;96436.44;5052955;28;19925;-66
2023/04/10 09:33:08;;;;;;;;;;;;;;;11.44;45.09;96433.16;5053013;28;20366;-66
2023/04/10 09:35:36;;;;;;;;;;;;;;;11.57;46.33;96433.50;5054818;28;19921;-65
2023/04/10 09:38:14;;;;;;;;;;;;;;;11.58;44.18;96434.31;5056970;28;19920;-66
2023/04/10 09:40:41;;;;;;;;;;;;;;;11.68;44.25;96432.16;5056838;28;19970;-66
2023/04/10 09:43:18;;;;;;;;;;;;;;;11.70;44.54;96430.31;5056951;28;19921;-66
2023/04/10 09:45:49;;;;;;;;;;;;;;;11.74;44.17;96424.88;5056771;28;20386;-65
2023/04/10 09:48:16;;;;;;;;;;;;;;;11.83;46.88;96428.84;5056643;28;19921;-66
2023/04/10 09:50:42;;;;;;;;;;;;;;;11.85;49.08;96424.41;5056796;28;20003;-65
2023/04/10 09:53:10;;;;;;;;;;;;;;;11.83;49.87;96433.25;5056802;28;19928;-66
2023/04/10 09:55:37;;;;;;;;;;;;;;;11.95;48.39;96422.19;5056722;28;20281;-66
2023/04/10 09:58:04;;;;;;;;;;;;;;;11.99;48.14;96418.53;5056715;28;19999;-66
2023/04/10 10:00:36;;;;;;;;;;;;;;;11.90;48.78;96418.09;5056538;28;19925;-65
2023/04/10 10:03:06;;;;;;;;;;;;;;;11.94;49.76;96417.88;5056403;28;19924;-66
2023/04/10 10:05:35;;;;;;;;;;;;;;;11.96;48.38;96417.81;5056408;28;19920;-65
2023/04/10 10:08:03;;;;;;;;;;;;;;;11.91;48.60;96418.03;5056336;28;19925;-66
2023/04/10 10:10:30;;;;;;;;;;;;;;;11.67;49.63;96417.34;5055118;28;19924;-66
2023/04/10 10:13:02;;;;;;;;;;;;;;;11.46;50.30;96420.00;5056010;28;19927;-66
2023/04/10 10:15:35;;;;;;;;;;;;;;;11.38;50.68;96417.72;5056298;28;19924;-66
2023/04/10 10:18:07;;;;;;;;;;;;;;;11.38;51.57;96415.09;5056247;28;20410;-66
2023/04/10 10:20:38;;;;;;;;;;;;;;;11.30;50.64;96412.81;5056154;28;19990;-66
2023/04/10 10:23:04;;;;;;;;;;;;;;;11.27;52.30;96412.94;5056160;28;20353;-66
2023/04/10 10:25:34;;;;;;;;;;;;;;;11.25;51.25;96410.38;5056025;28;20378;-66
2023/04/10 10:28:03;;;;;;;;;;;;;;;11.23;51.15;96404.34;5055927;28;19920;-66
2023/04/10 10:30:32;;;;;;;;;;;;;;;11.19;51.89;96408.03;5056018;28;20020;-66
2023/04/10 10:32:59;;;;;;;;;;;;;;;11.25;52.81;96399.91;5056051;28;19971;-66
2023/04/10 10:35:30;;;;;;;;;;;;;;;11.26;51.44;96403.41;5055898;28;19966;-66
2023/04/10 10:38:03;;;;;;;;;;;;;;;11.31;51.66;96396.19;5055815;28;19975;-66
2023/04/10 10:40:32;;;;;;;;;;;;;;;11.31;51.53;96390.06;5055842;28;19921;-66
2023/04/10 10:43:05;;;;;;;;;;;;;;;11.31;50.96;96393.56;5055787;28;20394;-66
2023/04/10 10:45:34;;;;;;;;;;;;;;;11.42;51.62;96385.25;5055322;28;20034;-66
2023/04/10 10:48:01;;;;;;;;;;;;;;;11.49;51.10;96389.28;5055628;28;19921;-65
2023/04/10 10:50:50;;;;;;;;;;;;;;;11.55;52.77;96384.69;5055639;28;19927;-66
2023/04/10 10:53:32;;;;;;;;;;;;;;;11.57;52.97;96378.47;5055504;28;19943;-66
2023/04/10 10:56:01;;;;;;;;;;;;;;;11.65;53.20;96383.34;5055494;28;19920;-66
2023/04/10 10:58:42;;;;;;;;;;;;;;;11.68;53.54;96377.97;5055410;28;19927;-66
2023/04/10 11:01:09;;;;;;;;;;;;;;;11.69;53.33;96384.06;5055223;28;19995;-66
2023/04/10 11:03:36;;;;;;;;;;;;;;;11.78;52.88;96382.81;5055443;28;19921;-66
2023/04/10 11:06:08;;;;;;;;;;;;;;;11.81;52.98;96380.03;5055281;28;19925;-66
2023/04/10 11:08:45;;;;;;;;;;;;;;;11.80;53.30;96375.75;5055162;28;19924;-66
2023/04/10 11:11:14;;;;;;;;;;;;;;;11.60;52.48;96375.72;5055465;28;19982;-66
2023/04/10 11:13:43;;;;;;;;;;;;;;;11.68;52.37;96371.91;5053624;28;20286;-66
2023/04/10 11:16:10;;;;;;;;;;;;;;;11.78;52.21;96375.81;5055178;28;19924;-66
2023/04/10 11:18:56;;;;;;;;;;;;;;;11.76;52.10;96372.38;5055132;28;19927;-66
2023/04/10 11:21:25;;;;;;;;;;;;;;;11.80;51.57;96373.94;5055064;28;19928;-66
2023/04/10 11:24:02;;;;;;;;;;;;;;;11.94;51.94;96364.59;5054972;28;19920;-66
2023/04/10 11:26:37;;;;;;;;;;;;;;;11.97;53.03;96362.69;5055022;28;19987;-66
2023/04/10 11:29:04;;;;;;;;;;;;;;;12.01;51.98;96363.38;5054763;28;19920;-66
2023/04/10 11:31:32;;;;;;;;;;;;;;;12.13;52.28;96354.13;5054839;28;20340;-66
2023/04/10 11:34:03;;;;;;;;;;;;;;;12.23;51.08;96351.94;5054784;28;19928;-66
2023/04/10 11:36:32;;;;;;;;;;;;;;;12.29;52.54;96346.41;5054688;28;20340;-66
2023/04/10 11:39:01;;;;;;;;;;;;;;;12.28;52.17;96344.69;5054801;28;19920;-66
2023/04/10 11:41:29;;;;;;;;;;;;;;;12.27;52.11;96348.25;5054621;28;19960;-66
2023/04/10 11:43:56;;;;;;;;;;;;;;;12.16;52.57;96333.00;5054587;28;19928;-67
2023/04/10 11:46:23;;;;;;;;;;;;;;;12.24;52.80;96337.91;5054576;28;20286;-66
2023/04/10 11:48:52;;;;;;;;;;;;;;;12.22;52.82;96331.91;5054496;28;19927;-66
2023/04/10 11:51:20;;;;;;;;;;;;;;;12.28;52.15;96330.75;5054555;28;19927;-66
2023/04/10 11:53:48;;;;;;;;;;;;;;;12.22;52.64;96331.91;5054385;28;20378;-66
2023/04/10 11:56:16;;;;;;;;;;;;;;;12.13;52.32;96323.53;5054295;28;20362;-66
2023/04/10 11:58:46;;;;;;;;;;;;;;;12.15;51.05;96319.97;5053598;28;19990;-66
2023/04/10 12:01:14;;;;;;;;;;;;;;;12.25;51.34;96329.09;5054250;28;19967;-67
2023/04/10 12:03:41;;;;;;;;;;;;;;;12.36;51.51;96313.72;5054232;28;20366;-66
2023/04/10 12:06:11;;;;;;;;;;;;;;;12.50;51.08;96305.13;5054207;28;20386;-66
2023/04/10 12:08:38;;;;;;;;;;;;;;;12.54;50.95;96311.09;5053997;28;19928;-66
2023/04/10 12:11:10;;;;;;;;;;;;;;;12.61;51.28;96312.50;5054062;28;19920;-66
2023/04/10 12:13:38;;;;;;;;;;;;;;;12.72;51.12;96309.34;5053814;28;19920;-66
2023/04/10 12:16:06;;;;;;;;;;;;;;;12.86;49.16;96306.00;5054146;28;19983;-66
2023/04/10 12:18:33;;;;;;;;;;;;;;;12.88;48.11;96300.66;5053899;28;19970;-66
2023/04/10 12:21:01;;;;;;;;;;;;;;;12.86;48.86;96307.78;5053914;28;19928;-66
2023/04/10 12:23:29;;;;;;;;;;;;;;;12.77;49.84;96303.84;5053925;28;19943;-66
2023/04/10 12:26:06;;;;;;;;;;;;;;;12.84;49.49;96300.00;5054005;28;19927;-66
2023/04/10 12:28:35;;;;;;;;;;;;;;;12.84;48.71;96297.38;5053679;28;20417;-66
2023/04/10 12:31:05;;;;;;;;;;;;;;;12.85;47.68;96298.19;5053851;28;19924;-66
2023/04/10 12:33:32;;;;;;;;;;;;;;;12.87;47.62;96306.84;5053736;28;20397;-66
2023/04/10 12:36:00;;;;;;;;;;;;;;;12.75;48.50;96300.44;5053696;28;19927;-66
2023/04/10 12:38:36;;;;;;;;;;;;;;;12.52;49.77;96297.19;5053698;28;20003;-66
2023/04/10 12:41:04;;;;;;;;;;;;;;;12.40;50.63;96301.28;5053628;28;20275;-66
2023/04/10 12:43:32;;;;;;;;;;;;;;;12.39;49.74;96299.59;5053553;28;19921;-66
2023/04/10 12:46:00;;;;;;;;;;;;;;;12.41;50.55;96295.13;5053523;28;20410;-66
2023/04/10 12:48:27;;;;;;;;;;;;;;;12.35;52.13;96292.81;5053457;28;19921;-66
2023/04/10 12:50:55;;;;;;;;;;;;;;;12.22;51.73;96285.53;5053510;28;19920;-66
2023/04/10 12:53:22;;;;;;;;;;;;;;;12.30;51.60;96286.91;5053426;28;19920;-66
2023/04/10 12:55:59;;;;;;;;;;;;;;;12.26;51.67;96284.44;5053425;28;19944;-66